sensor_id;sensor_type;location;lat;lon;timestamp;P1;durP1;ratioP1;P2;durP2;ratioP2
26906;SDS011;14472;56.880;16.658;2023-05-10T00:02:06;7.47;;;3.90;;
26906;SDS011;14472;56.880;16.658;2023-05-10T00:04:32;4.70;;;3.77;;
26906;SDS011;14472;56.880;16.658;2023-05-10T00:06:58;5.53;;;3.80;;
26906;SDS011;14472;56.880;16.658;2023-05-10T00:09:23;5.53;;;3.90;;
26906;SDS011;14472;56.880;16.658;2023-05-10T00:11:49;6.47;;;3.93;;
26906;SDS011;14472;56.880;16.658;2023-05-10T00:14:15;5.70;;;4.10;;
26906;SDS011;14472;56.880;16.658;2023-05-10T00:16:41;4.40;;;3.80;;
26906;SDS011;14472;56.880;16.658;2023-05-10T00:19:07;6.73;;;4.10;;
26906;SDS011;14472;56.880;16.658;2023-05-10T00:21:33;6.97;;;4.03;;
26906;SDS011;14472;56.880;16.658;2023-05-10T00:23:59;7.57;;;3.70;;
26906;SDS011;14472;56.880;16.658;2023-05-10T00:26:25;5.73;;;4.17;;
26906;SDS011;14472;56.880;16.658;2023-05-10T00:28:51;5.17;;;3.53;;
26906;SDS011;14472;56.880;16.658;2023-05-10T00:31:16;6.87;;;3.80;;
26906;SDS011;14472;56.880;16.658;2023-05-10T00:33:42;6.77;;;3.77;;
26906;SDS011;14472;56.880;16.658;2023-05-10T00:36:08;6.13;;;3.80;;
26906;SDS011;14472;56.880;16.658;2023-05-10T00:38:34;6.70;;;3.63;;
26906;SDS011;14472;56.880;16.658;2023-05-10T00:41:00;4.43;;;3.80;;
26906;SDS011;14472;56.880;16.658;2023-05-10T00:43:26;5.47;;;3.97;;
26906;SDS011;14472;56.880;16.658;2023-05-10T00:45:52;7.67;;;3.80;;
26906;SDS011;14472;56.880;16.658;2023-05-10T00:48:18;8.27;;;4.00;;
26906;SDS011;14472;56.880;16.658;2023-05-10T00:50:44;5.13;;;3.63;;
26906;SDS011;14472;56.880;16.658;2023-05-10T00:53:10;7.50;;;3.90;;
26906;SDS011;14472;56.880;16.658;2023-05-10T00:55:37;7.53;;;4.10;;
26906;SDS011;14472;56.880;16.658;2023-05-10T00:58:03;6.30;;;4.30;;
26906;SDS011;14472;56.880;16.658;2023-05-10T01:00:29;4.70;;;3.60;;
26906;SDS011;14472;56.880;16.658;2023-05-10T01:02:55;8.23;;;4.47;;
26906;SDS011;14472;56.880;16.658;2023-05-10T01:05:21;5.83;;;4.33;;
26906;SDS011;14472;56.880;16.658;2023-05-10T01:07:47;7.33;;;4.07;;
26906;SDS011;14472;56.880;16.658;2023-05-10T01:10:13;5.73;;;4.43;;
26906;SDS011;14472;56.880;16.658;2023-05-10T01:12:40;10.27;;;4.43;;
26906;SDS011;14472;56.880;16.658;2023-05-10T01:15:10;4.77;;;4.23;;
26906;SDS011;14472;56.880;16.658;2023-05-10T01:17:38;5.43;;;4.00;;
26906;SDS011;14472;56.880;16.658;2023-05-10T01:20:06;4.90;;;3.97;;
26906;SDS011;14472;56.880;16.658;2023-05-10T01:31:15;5.87;;;4.33;;
26906;SDS011;14472;56.880;16.658;2023-05-10T01:47:04;6.17;;;4.40;;
26906;SDS011;14472;56.880;16.658;2023-05-10T01:50:19;5.83;;;4.80;;
26906;SDS011;14472;56.880;16.658;2023-05-10T01:52:33;6.10;;;4.70;;
26906;SDS011;14472;56.880;16.658;2023-05-10T01:55:05;5.10;;;4.30;;
26906;SDS011;14472;56.880;16.658;2023-05-10T01:57:33;6.77;;;4.40;;
26906;SDS011;14472;56.880;16.658;2023-05-10T02:00:02;5.63;;;4.23;;
26906;SDS011;14472;56.880;16.658;2023-05-10T02:02:29;7.23;;;5.47;;
26906;SDS011;14472;56.880;16.658;2023-05-10T02:04:58;7.17;;;4.60;;
26906;SDS011;14472;56.880;16.658;2023-05-10T02:07:24;8.07;;;4.67;;
26906;SDS011;14472;56.880;16.658;2023-05-10T02:09:53;6.80;;;4.80;;
26906;SDS011;14472;56.880;16.658;2023-05-10T02:12:20;7.37;;;5.40;;
26906;SDS011;14472;56.880;16.658;2023-05-10T02:14:47;9.93;;;5.10;;
26906;SDS011;14472;56.880;16.658;2023-05-10T02:17:13;8.20;;;5.17;;
26906;SDS011;14472;56.880;16.658;2023-05-10T02:19:40;6.73;;;5.00;;
26906;SDS011;14472;56.880;16.658;2023-05-10T02:22:08;8.40;;;5.03;;
26906;SDS011;14472;56.880;16.658;2023-05-10T02:24:34;7.87;;;5.10;;
26906;SDS011;14472;56.880;16.658;2023-05-10T02:27:02;8.37;;;5.03;;
26906;SDS011;14472;56.880;16.658;2023-05-10T02:29:29;7.57;;;5.53;;
26906;SDS011;14472;56.880;16.658;2023-05-10T02:31:57;9.47;;;5.80;;
26906;SDS011;14472;56.880;16.658;2023-05-10T02:34:27;10.13;;;5.00;;
26906;SDS011;14472;56.880;16.658;2023-05-10T02:36:55;9.60;;;5.20;;
26906;SDS011;14472;56.880;16.658;2023-05-10T02:39:21;11.13;;;5.60;;
26906;SDS011;14472;56.880;16.658;2023-05-10T02:41:49;9.20;;;5.40;;
26906;SDS011;14472;56.880;16.658;2023-05-10T02:44:17;8.13;;;5.50;;
26906;SDS011;14472;56.880;16.658;2023-05-10T02:46:44;9.50;;;5.47;;
26906;SDS011;14472;56.880;16.658;2023-05-10T02:49:10;7.90;;;5.73;;
26906;SDS011;14472;56.880;16.658;2023-05-10T02:51:37;9.50;;;5.60;;
26906;SDS011;14472;56.880;16.658;2023-05-10T02:54:18;9.47;;;5.50;;
26906;SDS011;14472;56.880;16.658;2023-05-10T02:56:54;8.40;;;5.60;;
26906;SDS011;14472;56.880;16.658;2023-05-10T02:59:23;7.67;;;5.83;;
26906;SDS011;14472;56.880;16.658;2023-05-10T03:01:48;9.87;;;5.63;;
26906;SDS011;14472;56.880;16.658;2023-05-10T03:04:14;13.73;;;6.83;;
26906;SDS011;14472;56.880;16.658;2023-05-10T03:06:40;10.67;;;6.60;;
26906;SDS011;14472;56.880;16.658;2023-05-10T03:09:06;7.73;;;6.13;;
26906;SDS011;14472;56.880;16.658;2023-05-10T03:17:40;7.10;;;5.77;;
26906;SDS011;14472;56.880;16.658;2023-05-10T03:20:04;7.87;;;5.70;;
26906;SDS011;14472;56.880;16.658;2023-05-10T03:22:40;7.30;;;5.20;;
26906;SDS011;14472;56.880;16.658;2023-05-10T03:25:10;9.30;;;5.60;;
26906;SDS011;14472;56.880;16.658;2023-05-10T03:27:39;9.33;;;5.40;;
26906;SDS011;14472;56.880;16.658;2023-05-10T03:30:10;11.60;;;5.70;;
26906;SDS011;14472;56.880;16.658;2023-05-10T03:32:37;8.67;;;5.20;;
26906;SDS011;14472;56.880;16.658;2023-05-10T03:35:10;6.13;;;5.07;;
26906;SDS011;14472;56.880;16.658;2023-05-10T03:37:38;10.10;;;5.70;;
26906;SDS011;14472;56.880;16.658;2023-05-10T03:40:04;7.50;;;5.60;;
26906;SDS011;14472;56.880;16.658;2023-05-10T03:42:30;10.40;;;5.80;;
26906;SDS011;14472;56.880;16.658;2023-05-10T03:44:56;7.77;;;5.27;;
26906;SDS011;14472;56.880;16.658;2023-05-10T03:47:22;8.60;;;5.50;;
26906;SDS011;14472;56.880;16.658;2023-05-10T03:49:47;10.17;;;5.97;;
26906;SDS011;14472;56.880;16.658;2023-05-10T03:52:13;7.83;;;5.27;;
26906;SDS011;14472;56.880;16.658;2023-05-10T03:54:39;7.00;;;5.47;;
26906;SDS011;14472;56.880;16.658;2023-05-10T03:57:05;8.33;;;5.40;;
26906;SDS011;14472;56.880;16.658;2023-05-10T03:59:30;5.27;;;4.60;;
26906;SDS011;14472;56.880;16.658;2023-05-10T04:01:56;10.97;;;5.30;;
26906;SDS011;14472;56.880;16.658;2023-05-10T04:04:22;8.80;;;5.07;;
26906;SDS011;14472;56.880;16.658;2023-05-10T04:06:48;8.03;;;5.50;;
26906;SDS011;14472;56.880;16.658;2023-05-10T04:09:14;7.60;;;4.93;;
26906;SDS011;14472;56.880;16.658;2023-05-10T04:11:40;6.73;;;4.73;;
26906;SDS011;14472;56.880;16.658;2023-05-10T04:14:05;7.10;;;4.67;;
26906;SDS011;14472;56.880;16.658;2023-05-10T04:16:31;9.40;;;5.00;;
26906;SDS011;14472;56.880;16.658;2023-05-10T04:18:57;7.63;;;5.00;;
26906;SDS011;14472;56.880;16.658;2023-05-10T04:21:23;8.47;;;4.90;;
26906;SDS011;14472;56.880;16.658;2023-05-10T04:23:48;5.87;;;4.70;;
26906;SDS011;14472;56.880;16.658;2023-05-10T04:26:14;6.67;;;4.97;;
26906;SDS011;14472;56.880;16.658;2023-05-10T04:28:40;7.47;;;4.93;;
26906;SDS011;14472;56.880;16.658;2023-05-10T04:31:07;7.03;;;5.00;;
26906;SDS011;14472;56.880;16.658;2023-05-10T04:33:33;7.53;;;4.70;;
26906;SDS011;14472;56.880;16.658;2023-05-10T04:36:00;8.57;;;5.30;;
26906;SDS011;14472;56.880;16.658;2023-05-10T04:38:26;7.20;;;4.30;;
26906;SDS011;14472;56.880;16.658;2023-05-10T04:40:53;7.77;;;5.17;;
26906;SDS011;14472;56.880;16.658;2023-05-10T04:43:18;10.20;;;4.70;;
26906;SDS011;14472;56.880;16.658;2023-05-10T04:45:45;6.23;;;4.50;;
26906;SDS011;14472;56.880;16.658;2023-05-10T04:48:11;5.70;;;4.30;;
26906;SDS011;14472;56.880;16.658;2023-05-10T04:50:37;12.93;;;4.33;;
26906;SDS011;14472;56.880;16.658;2023-05-10T04:53:04;10.13;;;4.40;;
26906;SDS011;14472;56.880;16.658;2023-05-10T04:55:29;5.80;;;4.33;;
26906;SDS011;14472;56.880;16.658;2023-05-10T04:57:55;7.53;;;4.37;;
26906;SDS011;14472;56.880;16.658;2023-05-10T05:00:22;8.40;;;4.80;;
26906;SDS011;14472;56.880;16.658;2023-05-10T05:02:48;5.70;;;4.10;;
26906;SDS011;14472;56.880;16.658;2023-05-10T05:05:14;6.30;;;3.80;;
26906;SDS011;14472;56.880;16.658;2023-05-10T05:07:40;7.93;;;4.17;;
26906;SDS011;14472;56.880;16.658;2023-05-10T05:10:06;8.37;;;4.10;;
26906;SDS011;14472;56.880;16.658;2023-05-10T05:12:33;4.60;;;3.63;;
26906;SDS011;14472;56.880;16.658;2023-05-10T05:14:59;6.77;;;4.20;;
26906;SDS011;14472;56.880;16.658;2023-05-10T05:17:25;11.40;;;4.30;;
26906;SDS011;14472;56.880;16.658;2023-05-10T05:19:51;10.17;;;4.00;;
26906;SDS011;14472;56.880;16.658;2023-05-10T05:22:17;5.63;;;3.90;;
26906;SDS011;14472;56.880;16.658;2023-05-10T05:24:44;5.17;;;4.00;;
26906;SDS011;14472;56.880;16.658;2023-05-10T05:27:10;5.70;;;3.63;;
26906;SDS011;14472;56.880;16.658;2023-05-10T05:29:36;6.90;;;4.40;;
26906;SDS011;14472;56.880;16.658;2023-05-10T05:32:02;5.20;;;3.57;;
26906;SDS011;14472;56.880;16.658;2023-05-10T05:34:28;5.70;;;3.60;;
26906;SDS011;14472;56.880;16.658;2023-05-10T05:36:53;6.03;;;3.77;;
26906;SDS011;14472;56.880;16.658;2023-05-10T05:39:19;5.83;;;3.40;;
26906;SDS011;14472;56.880;16.658;2023-05-10T05:41:45;4.57;;;3.77;;
26906;SDS011;14472;56.880;16.658;2023-05-10T05:44:11;6.37;;;4.10;;
26906;SDS011;14472;56.880;16.658;2023-05-10T05:46:37;6.20;;;3.70;;
26906;SDS011;14472;56.880;16.658;2023-05-10T05:49:03;5.43;;;3.60;;
26906;SDS011;14472;56.880;16.658;2023-05-10T05:51:29;6.73;;;4.07;;
26906;SDS011;14472;56.880;16.658;2023-05-10T05:53:56;4.03;;;3.53;;
26906;SDS011;14472;56.880;16.658;2023-05-10T05:56:21;6.37;;;3.87;;
26906;SDS011;14472;56.880;16.658;2023-05-10T05:58:52;8.07;;;3.67;;
26906;SDS011;14472;56.880;16.658;2023-05-10T06:01:18;7.70;;;3.90;;
26906;SDS011;14472;56.880;16.658;2023-05-10T06:03:44;5.27;;;3.90;;
26906;SDS011;14472;56.880;16.658;2023-05-10T06:06:09;5.17;;;3.70;;
26906;SDS011;14472;56.880;16.658;2023-05-10T06:08:35;5.70;;;3.90;;
26906;SDS011;14472;56.880;16.658;2023-05-10T06:11:01;6.97;;;3.70;;
26906;SDS011;14472;56.880;16.658;2023-05-10T06:13:27;6.47;;;3.43;;
26906;SDS011;14472;56.880;16.658;2023-05-10T06:15:57;5.00;;;3.67;;
26906;SDS011;14472;56.880;16.658;2023-05-10T06:18:23;5.57;;;3.40;;
26906;SDS011;14472;56.880;16.658;2023-05-10T06:20:49;5.80;;;3.40;;
26906;SDS011;14472;56.880;16.658;2023-05-10T06:23:15;7.07;;;3.90;;
26906;SDS011;14472;56.880;16.658;2023-05-10T06:25:41;4.70;;;3.70;;
26906;SDS011;14472;56.880;16.658;2023-05-10T06:28:07;5.47;;;3.73;;
26906;SDS011;14472;56.880;16.658;2023-05-10T06:30:32;6.03;;;3.80;;
26906;SDS011;14472;56.880;16.658;2023-05-10T06:32:58;6.07;;;3.70;;
26906;SDS011;14472;56.880;16.658;2023-05-10T06:35:24;5.87;;;3.47;;
26906;SDS011;14472;56.880;16.658;2023-05-10T06:37:50;5.43;;;2.93;;
26906;SDS011;14472;56.880;16.658;2023-05-10T06:40:16;4.93;;;3.13;;
26906;SDS011;14472;56.880;16.658;2023-05-10T06:42:42;5.67;;;3.30;;
26906;SDS011;14472;56.880;16.658;2023-05-10T06:45:09;6.80;;;3.57;;
26906;SDS011;14472;56.880;16.658;2023-05-10T06:47:35;4.73;;;3.10;;
26906;SDS011;14472;56.880;16.658;2023-05-10T06:50:01;3.57;;;3.20;;
26906;SDS011;14472;56.880;16.658;2023-05-10T06:52:28;8.47;;;3.70;;
26906;SDS011;14472;56.880;16.658;2023-05-10T06:54:53;3.67;;;3.07;;
26906;SDS011;14472;56.880;16.658;2023-05-10T06:57:19;7.17;;;3.33;;
26906;SDS011;14472;56.880;16.658;2023-05-10T06:59:46;4.60;;;3.43;;
26906;SDS011;14472;56.880;16.658;2023-05-10T07:02:12;8.37;;;3.40;;
26906;SDS011;14472;56.880;16.658;2023-05-10T07:04:39;4.57;;;3.33;;
26906;SDS011;14472;56.880;16.658;2023-05-10T07:07:05;6.43;;;3.43;;
26906;SDS011;14472;56.880;16.658;2023-05-10T07:09:31;5.67;;;3.50;;
26906;SDS011;14472;56.880;16.658;2023-05-10T07:11:57;4.07;;;3.27;;
26906;SDS011;14472;56.880;16.658;2023-05-10T07:14:23;7.50;;;3.63;;
26906;SDS011;14472;56.880;16.658;2023-05-10T07:16:48;4.37;;;3.13;;
26906;SDS011;14472;56.880;16.658;2023-05-10T07:19:14;3.50;;;3.10;;
26906;SDS011;14472;56.880;16.658;2023-05-10T07:21:40;4.17;;;2.93;;
26906;SDS011;14472;56.880;16.658;2023-05-10T07:24:08;5.83;;;3.30;;
26906;SDS011;14472;56.880;16.658;2023-05-10T07:26:34;4.73;;;3.17;;
26906;SDS011;14472;56.880;16.658;2023-05-10T07:29:00;4.13;;;3.20;;
26906;SDS011;14472;56.880;16.658;2023-05-10T07:31:26;5.07;;;3.47;;
26906;SDS011;14472;56.880;16.658;2023-05-10T07:33:52;6.43;;;3.50;;
26906;SDS011;14472;56.880;16.658;2023-05-10T07:36:17;6.50;;;3.47;;
26906;SDS011;14472;56.880;16.658;2023-05-10T07:38:43;5.80;;;3.53;;
26906;SDS011;14472;56.880;16.658;2023-05-10T07:41:09;8.83;;;3.60;;
26906;SDS011;14472;56.880;16.658;2023-05-10T07:43:36;5.40;;;3.47;;
26906;SDS011;14472;56.880;16.658;2023-05-10T07:46:02;5.10;;;3.27;;
26906;SDS011;14472;56.880;16.658;2023-05-10T07:48:27;7.73;;;3.63;;
26906;SDS011;14472;56.880;16.658;2023-05-10T07:50:53;6.50;;;4.23;;
26906;SDS011;14472;56.880;16.658;2023-05-10T07:53:19;9.77;;;4.00;;
26906;SDS011;14472;56.880;16.658;2023-05-10T07:55:49;4.77;;;3.17;;
26906;SDS011;14472;56.880;16.658;2023-05-10T07:58:16;8.60;;;3.40;;
26906;SDS011;14472;56.880;16.658;2023-05-10T08:00:42;5.40;;;3.53;;
26906;SDS011;14472;56.880;16.658;2023-05-10T08:03:08;4.20;;;3.80;;
26906;SDS011;14472;56.880;16.658;2023-05-10T08:05:34;5.30;;;3.63;;
26906;SDS011;14472;56.880;16.658;2023-05-10T08:08:00;4.67;;;3.57;;
26906;SDS011;14472;56.880;16.658;2023-05-10T08:10:25;6.97;;;3.77;;
26906;SDS011;14472;56.880;16.658;2023-05-10T08:12:51;8.77;;;3.60;;
26906;SDS011;14472;56.880;16.658;2023-05-10T08:15:17;5.13;;;3.70;;
26906;SDS011;14472;56.880;16.658;2023-05-10T08:17:43;6.67;;;3.70;;
26906;SDS011;14472;56.880;16.658;2023-05-10T08:20:09;5.73;;;4.03;;
26906;SDS011;14472;56.880;16.658;2023-05-10T08:22:34;6.18;;;4.05;;
26906;SDS011;14472;56.880;16.658;2023-05-10T08:25:00;6.40;;;3.63;;
26906;SDS011;14472;56.880;16.658;2023-05-10T08:27:26;5.65;;;3.67;;
26906;SDS011;14472;56.880;16.658;2023-05-10T08:29:52;5.03;;;3.55;;
26906;SDS011;14472;56.880;16.658;2023-05-10T08:32:19;5.75;;;3.90;;
26906;SDS011;14472;56.880;16.658;2023-05-10T08:34:45;6.00;;;3.70;;
26906;SDS011;14472;56.880;16.658;2023-05-10T08:37:11;5.65;;;3.80;;
26906;SDS011;14472;56.880;16.658;2023-05-10T08:39:43;9.38;;;4.05;;
26906;SDS011;14472;56.880;16.658;2023-05-10T08:42:10;6.07;;;3.58;;
26906;SDS011;14472;56.880;16.658;2023-05-10T08:44:37;8.52;;;3.97;;
26906;SDS011;14472;56.880;16.658;2023-05-10T08:47:04;5.25;;;4.03;;
26906;SDS011;14472;56.880;16.658;2023-05-10T08:49:32;11.55;;;3.90;;
26906;SDS011;14472;56.880;16.658;2023-05-10T08:51:59;7.38;;;3.42;;
26906;SDS011;14472;56.880;16.658;2023-05-10T08:54:29;4.80;;;3.42;;
26906;SDS011;14472;56.880;16.658;2023-05-10T08:56:56;6.75;;;4.05;;
26906;SDS011;14472;56.880;16.658;2023-05-10T08:59:22;9.55;;;4.18;;
26906;SDS011;14472;56.880;16.658;2023-05-10T09:01:48;7.53;;;4.50;;
26906;SDS011;14472;56.880;16.658;2023-05-10T09:04:15;6.75;;;4.05;;
26906;SDS011;14472;56.880;16.658;2023-05-10T09:06:41;6.72;;;3.95;;
26906;SDS011;14472;56.880;16.658;2023-05-10T09:09:06;5.80;;;4.13;;
26906;SDS011;14472;56.880;16.658;2023-05-10T09:11:32;6.55;;;4.30;;
26906;SDS011;14472;56.880;16.658;2023-05-10T09:13:58;6.25;;;3.85;;
26906;SDS011;14472;56.880;16.658;2023-05-10T09:16:24;9.25;;;4.35;;
26906;SDS011;14472;56.880;16.658;2023-05-10T09:18:50;5.75;;;3.90;;
26906;SDS011;14472;56.880;16.658;2023-05-10T09:21:16;5.55;;;3.70;;
26906;SDS011;14472;56.880;16.658;2023-05-10T09:23:45;6.80;;;4.10;;
26906;SDS011;14472;56.880;16.658;2023-05-10T09:26:11;5.13;;;4.03;;
26906;SDS011;14472;56.880;16.658;2023-05-10T09:34:15;4.78;;;3.90;;
26906;SDS011;14472;56.880;16.658;2023-05-10T09:36:51;7.50;;;4.10;;
26906;SDS011;14472;56.880;16.658;2023-05-10T09:39:29;6.95;;;4.32;;
26906;SDS011;14472;56.880;16.658;2023-05-10T09:41:59;8.20;;;4.25;;
26906;SDS011;14472;56.880;16.658;2023-05-10T09:44:28;7.68;;;4.40;;
26906;SDS011;14472;56.880;16.658;2023-05-10T09:46:54;5.32;;;4.10;;
26906;SDS011;14472;56.880;16.658;2023-05-10T09:49:20;6.60;;;4.45;;
26906;SDS011;14472;56.880;16.658;2023-05-10T09:51:47;5.53;;;4.20;;
26906;SDS011;14472;56.880;16.658;2023-05-10T09:54:22;7.28;;;4.57;;
26906;SDS011;14472;56.880;16.658;2023-05-10T09:56:49;8.73;;;4.75;;
26906;SDS011;14472;56.880;16.658;2023-05-10T09:59:14;8.18;;;4.50;;
26906;SDS011;14472;56.880;16.658;2023-05-10T10:01:42;5.18;;;4.10;;
26906;SDS011;14472;56.880;16.658;2023-05-10T10:04:14;8.80;;;4.22;;
26906;SDS011;14472;56.880;16.658;2023-05-10T10:06:40;5.55;;;4.20;;
26906;SDS011;14472;56.880;16.658;2023-05-10T10:09:06;8.43;;;4.57;;
26906;SDS011;14472;56.880;16.658;2023-05-10T10:11:34;6.03;;;4.20;;
26906;SDS011;14472;56.880;16.658;2023-05-10T10:14:01;5.47;;;4.40;;
26906;SDS011;14472;56.880;16.658;2023-05-10T10:16:28;10.43;;;4.55;;
26906;SDS011;14472;56.880;16.658;2023-05-10T10:18:55;6.35;;;4.35;;
26906;SDS011;14472;56.880;16.658;2023-05-10T10:21:21;6.47;;;4.20;;
26906;SDS011;14472;56.880;16.658;2023-05-10T10:23:48;7.63;;;4.13;;
26906;SDS011;14472;56.880;16.658;2023-05-10T10:26:15;7.65;;;4.18;;
26906;SDS011;14472;56.880;16.658;2023-05-10T10:31:40;7.80;;;4.20;;
26906;SDS011;14472;56.880;16.658;2023-05-10T10:34:24;4.65;;;3.78;;
26906;SDS011;14472;56.880;16.658;2023-05-10T10:36:55;8.15;;;3.70;;
26906;SDS011;14472;56.880;16.658;2023-05-10T10:39:22;5.80;;;3.95;;
26906;SDS011;14472;56.880;16.658;2023-05-10T10:41:51;4.85;;;3.70;;
26906;SDS011;14472;56.880;16.658;2023-05-10T10:47:00;5.28;;;3.78;;
26906;SDS011;14472;56.880;16.658;2023-05-10T10:49:27;5.63;;;3.72;;
26906;SDS011;14472;56.880;16.658;2023-05-10T10:52:15;6.43;;;3.70;;
26906;SDS011;14472;56.880;16.658;2023-05-10T10:54:52;6.43;;;3.80;;
26906;SDS011;14472;56.880;16.658;2023-05-10T10:57:23;6.10;;;3.55;;
26906;SDS011;14472;56.880;16.658;2023-05-10T10:59:51;6.00;;;3.50;;
26906;SDS011;14472;56.880;16.658;2023-05-10T11:02:46;4.70;;;3.47;;
26906;SDS011;14472;56.880;16.658;2023-05-10T11:08:08;6.95;;;3.50;;
26906;SDS011;14472;56.880;16.658;2023-05-10T11:10:34;5.78;;;3.20;;
26906;SDS011;14472;56.880;16.658;2023-05-10T11:13:05;5.97;;;3.70;;
26906;SDS011;14472;56.880;16.658;2023-05-10T11:15:35;8.20;;;3.60;;
26906;SDS011;14472;56.880;16.658;2023-05-10T11:18:24;7.03;;;3.28;;
26906;SDS011;14472;56.880;16.658;2023-05-10T11:21:00;8.63;;;3.60;;
26906;SDS011;14472;56.880;16.658;2023-05-10T11:26:12;6.35;;;3.22;;
26906;SDS011;14472;56.880;16.658;2023-05-10T11:28:42;5.30;;;3.20;;
26906;SDS011;14472;56.880;16.658;2023-05-10T11:31:09;6.72;;;3.22;;
26906;SDS011;14472;56.880;16.658;2023-05-10T11:36:16;8.60;;;3.50;;
26906;SDS011;14472;56.880;16.658;2023-05-10T11:38:42;5.28;;;3.42;;
26906;SDS011;14472;56.880;16.658;2023-05-10T11:41:09;6.38;;;3.67;;
26906;SDS011;14472;56.880;16.658;2023-05-10T11:43:36;6.47;;;3.47;;
26906;SDS011;14472;56.880;16.658;2023-05-10T11:46:06;4.80;;;3.55;;
26906;SDS011;14472;56.880;16.658;2023-05-10T11:48:36;8.18;;;4.10;;
26906;SDS011;14472;56.880;16.658;2023-05-10T11:51:04;4.30;;;3.53;;
26906;SDS011;14472;56.880;16.658;2023-05-10T11:53:32;4.72;;;3.50;;
26906;SDS011;14472;56.880;16.658;2023-05-10T11:56:08;4.07;;;3.40;;
26906;SDS011;14472;56.880;16.658;2023-05-10T11:58:35;4.15;;;3.17;;
26906;SDS011;14472;56.880;16.658;2023-05-10T12:01:06;5.03;;;3.55;;
26906;SDS011;14472;56.880;16.658;2023-05-10T12:03:34;10.32;;;3.40;;
26906;SDS011;14472;56.880;16.658;2023-05-10T12:06:01;6.32;;;3.55;;
26906;SDS011;14472;56.880;16.658;2023-05-10T12:08:28;5.55;;;3.30;;
26906;SDS011;14472;56.880;16.658;2023-05-10T12:11:03;5.65;;;3.65;;
26906;SDS011;14472;56.880;16.658;2023-05-10T12:13:31;6.75;;;3.10;;
26906;SDS011;14472;56.880;16.658;2023-05-10T12:15:57;5.20;;;3.28;;
26906;SDS011;14472;56.880;16.658;2023-05-10T12:18:23;7.28;;;3.40;;
26906;SDS011;14472;56.880;16.658;2023-05-10T12:20:53;6.07;;;3.38;;
26906;SDS011;14472;56.880;16.658;2023-05-10T12:23:19;5.75;;;3.15;;
26906;SDS011;14472;56.880;16.658;2023-05-10T12:25:45;7.00;;;3.83;;
26906;SDS011;14472;56.880;16.658;2023-05-10T12:28:11;4.28;;;3.40;;
26906;SDS011;14472;56.880;16.658;2023-05-10T12:30:38;6.25;;;3.65;;
26906;SDS011;14472;56.880;16.658;2023-05-10T12:33:11;4.88;;;3.33;;
26906;SDS011;14472;56.880;16.658;2023-05-10T12:38:33;6.85;;;3.13;;
26906;SDS011;14472;56.880;16.658;2023-05-10T12:41:00;4.75;;;3.08;;
26906;SDS011;14472;56.880;16.658;2023-05-10T12:43:27;6.53;;;3.30;;
26906;SDS011;14472;56.880;16.658;2023-05-10T12:45:53;5.80;;;2.85;;
26906;SDS011;14472;56.880;16.658;2023-05-10T12:48:18;7.15;;;3.10;;
26906;SDS011;14472;56.880;16.658;2023-05-10T12:50:45;7.07;;;3.00;;
26906;SDS011;14472;56.880;16.658;2023-05-10T12:53:11;5.82;;;2.78;;
26906;SDS011;14472;56.880;16.658;2023-05-10T12:55:38;5.60;;;2.80;;
26906;SDS011;14472;56.880;16.658;2023-05-10T12:58:04;7.20;;;2.95;;
26906;SDS011;14472;56.880;16.658;2023-05-10T13:00:30;3.65;;;2.90;;
26906;SDS011;14472;56.880;16.658;2023-05-10T13:02:56;5.55;;;3.08;;
26906;SDS011;14472;56.880;16.658;2023-05-10T13:05:24;7.53;;;2.80;;
26906;SDS011;14472;56.880;16.658;2023-05-10T13:07:50;4.45;;;2.80;;
26906;SDS011;14472;56.880;16.658;2023-05-10T13:10:16;5.80;;;3.25;;
26906;SDS011;14472;56.880;16.658;2023-05-10T13:12:42;4.35;;;2.92;;
26906;SDS011;14472;56.880;16.658;2023-05-10T13:15:08;7.05;;;2.78;;
26906;SDS011;14472;56.880;16.658;2023-05-10T13:17:34;4.57;;;2.83;;
26906;SDS011;14472;56.880;16.658;2023-05-10T13:19:59;4.70;;;2.60;;
26906;SDS011;14472;56.880;16.658;2023-05-10T13:22:25;5.43;;;2.55;;
26906;SDS011;14472;56.880;16.658;2023-05-10T13:24:51;7.10;;;2.90;;
26906;SDS011;14472;56.880;16.658;2023-05-10T13:27:17;3.78;;;2.53;;
26906;SDS011;14472;56.880;16.658;2023-05-10T13:29:42;4.35;;;2.75;;
26906;SDS011;14472;56.880;16.658;2023-05-10T13:32:08;7.13;;;2.58;;
26906;SDS011;14472;56.880;16.658;2023-05-10T13:34:34;4.55;;;2.72;;
26906;SDS011;14472;56.880;16.658;2023-05-10T13:37:00;3.22;;;2.42;;
26906;SDS011;14472;56.880;16.658;2023-05-10T13:39:26;8.27;;;2.67;;
26906;SDS011;14472;56.880;16.658;2023-05-10T13:41:52;5.93;;;2.53;;
26906;SDS011;14472;56.880;16.658;2023-05-10T13:44:19;6.47;;;2.92;;
26906;SDS011;14472;56.880;16.658;2023-05-10T13:46:45;3.72;;;2.30;;
26906;SDS011;14472;56.880;16.658;2023-05-10T13:49:11;2.92;;;2.40;;
26906;SDS011;14472;56.880;16.658;2023-05-10T13:51:37;5.82;;;2.60;;
26906;SDS011;14472;56.880;16.658;2023-05-10T13:54:02;6.30;;;3.00;;
26906;SDS011;14472;56.880;16.658;2023-05-10T13:56:28;3.53;;;2.75;;
26906;SDS011;14472;56.880;16.658;2023-05-10T13:58:55;3.83;;;2.40;;
26906;SDS011;14472;56.880;16.658;2023-05-10T14:01:22;3.90;;;2.50;;
26906;SDS011;14472;56.880;16.658;2023-05-10T14:03:48;4.93;;;2.60;;
26906;SDS011;14472;56.880;16.658;2023-05-10T14:06:14;3.58;;;2.67;;
26906;SDS011;14472;56.880;16.658;2023-05-10T14:08:39;3.47;;;2.50;;
26906;SDS011;14472;56.880;16.658;2023-05-10T14:11:06;5.53;;;2.50;;
26906;SDS011;14472;56.880;16.658;2023-05-10T14:13:32;3.47;;;2.50;;
26906;SDS011;14472;56.880;16.658;2023-05-10T14:15:58;4.78;;;2.80;;
26906;SDS011;14472;56.880;16.658;2023-05-10T14:18:26;7.68;;;2.42;;
26906;SDS011;14472;56.880;16.658;2023-05-10T14:20:52;3.78;;;2.53;;
26906;SDS011;14472;56.880;16.658;2023-05-10T14:23:19;2.55;;;2.20;;
26906;SDS011;14472;56.880;16.658;2023-05-10T14:25:49;6.05;;;2.50;;
26906;SDS011;14472;56.880;16.658;2023-05-10T14:28:15;5.82;;;2.30;;
26906;SDS011;14472;56.880;16.658;2023-05-10T14:30:43;4.18;;;2.40;;
26906;SDS011;14472;56.880;16.658;2023-05-10T14:33:09;4.30;;;2.38;;
26906;SDS011;14472;56.880;16.658;2023-05-10T14:35:35;5.85;;;2.70;;
26906;SDS011;14472;56.880;16.658;2023-05-10T14:38:01;4.10;;;2.25;;
26906;SDS011;14472;56.880;16.658;2023-05-10T14:40:28;4.40;;;2.50;;
26906;SDS011;14472;56.880;16.658;2023-05-10T14:42:54;4.13;;;2.40;;
26906;SDS011;14472;56.880;16.658;2023-05-10T14:45:21;4.70;;;2.83;;
26906;SDS011;14472;56.880;16.658;2023-05-10T14:47:47;3.83;;;2.40;;
26906;SDS011;14472;56.880;16.658;2023-05-10T14:50:14;6.40;;;2.60;;
26906;SDS011;14472;56.880;16.658;2023-05-10T14:52:40;4.07;;;2.20;;
26906;SDS011;14472;56.880;16.658;2023-05-10T14:55:06;4.03;;;2.90;;
26906;SDS011;14472;56.880;16.658;2023-05-10T14:57:32;4.03;;;2.88;;
26906;SDS011;14472;56.880;16.658;2023-05-10T14:59:58;3.35;;;2.55;;
26906;SDS011;14472;56.880;16.658;2023-05-10T15:02:27;3.67;;;2.72;;
26906;SDS011;14472;56.880;16.658;2023-05-10T15:04:53;7.93;;;2.60;;
26906;SDS011;14472;56.880;16.658;2023-05-10T15:07:18;5.82;;;2.63;;
26906;SDS011;14472;56.880;16.658;2023-05-10T15:09:44;4.95;;;2.63;;
26906;SDS011;14472;56.880;16.658;2023-05-10T15:12:10;4.93;;;2.67;;
26906;SDS011;14472;56.880;16.658;2023-05-10T15:14:36;5.93;;;2.53;;
26906;SDS011;14472;56.880;16.658;2023-05-10T15:17:02;2.92;;;2.58;;
26906;SDS011;14472;56.880;16.658;2023-05-10T15:19:28;3.55;;;2.60;;
26906;SDS011;14472;56.880;16.658;2023-05-10T15:21:54;4.90;;;2.50;;
26906;SDS011;14472;56.880;16.658;2023-05-10T15:24:21;2.97;;;2.25;;